New Boston, Ohio
Current Conditions -  °F | °C
As of 7:35 PM on Monday 24 Nov 2014 (Local Time) from KDWU Reporting Station
Clear Clear  
Wind Chill: 45°   Ceiling: Unl
Heat Index: 48°   Visibility: 10mi
Dew Point: 36°   Wind: 7mph
Humidity: 62%   Direction: 320°NW
Pressure: 29.83"   Gusts: NA
Location:  38.7891°N, 82.914°W
Report Text: KDWU 250035Z AUTO 32006KT 10SM CLR 09/02 A2983 RMK AO1
Loading
Personal Weather Stations






























Interactive Weather Map New forecast layout! Learn more

10-Day Weather Forecast

Advertisements
Track Severe Weather on mobile